<?xml version="1.0" encoding="UTF-8" standalone="no" ?>
<gpx xmlns="http://www.topografix.com/GPX/1/1" xmlns:xsi="http://www.w3.org/2001/XMLSchema-instance" xsi:schemaLocation="http://www.topografix.com/GPX/1/1 http://www.topografix.com/GPX/1/1/gpx.xsd" version="1.1" creator="VisuGPX - https://www.visugpx.com">
  <metadata>
    <name>Course à pied dans l'après-midi</name>
  </metadata>
  <trk>
    <name><![CDATA[Course à pied dans l'après-midi_1]]></name>
    <trkseg>
      <trkpt lat="44.01928" lon="2.13095">
        <ele>343.4</ele>
        <time>2024-03-09T13:00:02Z</time>
      </trkpt>
      <trkpt lat="44.01905" lon="2.13094">
        <ele>343.7</ele>
        <time>2024-03-09T13:00:08Z</time>
      </trkpt>
      <trkpt lat="44.01885" lon="2.13098">
        <ele>343.9</ele>
        <time>2024-03-09T13:00:12Z</time>
      </trkpt>
      <trkpt lat="44.01866" lon="2.13106">
        <ele>344.1</ele>
        <time>2024-03-09T13:00:16Z</time>
      </trkpt>
      <trkpt lat="44.01847" lon="2.13114">
        <ele>344.4</ele>
        <time>2024-03-09T13:00:20Z</time>
      </trkpt>
      <trkpt lat="44.01826" lon="2.13123">
        <ele>344.6</ele>
        <time>2024-03-09T13:00:25Z</time>
      </trkpt>
      <trkpt lat="44.01805" lon="2.13132">
        <ele>344.8</ele>
        <time>2024-03-09T13:00:30Z</time>
      </trkpt>
      <trkpt lat="44.01787" lon="2.1314">
        <ele>345</ele>
        <time>2024-03-09T13:00:34Z</time>
      </trkpt>
      <trkpt lat="44.01766" lon="2.13147">
        <ele>345.1</ele>
        <time>2024-03-09T13:00:39Z</time>
      </trkpt>
      <trkpt lat="44.01745" lon="2.13155">
        <ele>345.2</ele>
        <time>2024-03-09T13:00:44Z</time>
      </trkpt>
      <trkpt lat="44.01738" lon="2.13168">
        <ele>345.2</ele>
        <time>2024-03-09T13:00:48Z</time>
      </trkpt>
      <trkpt lat="44.01742" lon="2.13198">
        <ele>345.9</ele>
        <time>2024-03-09T13:00:53Z</time>
      </trkpt>
      <trkpt lat="44.01745" lon="2.13221">
        <ele>346.4</ele>
        <time>2024-03-09T13:00:57Z</time>
      </trkpt>
      <trkpt lat="44.01755" lon="2.13233">
        <ele>346.7</ele>
        <time>2024-03-09T13:01:01Z</time>
      </trkpt>
      <trkpt lat="44.01771" lon="2.13224">
        <ele>346.6</ele>
        <time>2024-03-09T13:01:05Z</time>
      </trkpt>
      <trkpt lat="44.01789" lon="2.1321">
        <ele>346.2</ele>
        <time>2024-03-09T13:01:10Z</time>
      </trkpt>
      <trkpt lat="44.01803" lon="2.13194">
        <ele>345.8</ele>
        <time>2024-03-09T13:01:15Z</time>
      </trkpt>
      <trkpt lat="44.01808" lon="2.13169">
        <ele>345.5</ele>
        <time>2024-03-09T13:01:20Z</time>
      </trkpt>
      <trkpt lat="44.01821" lon="2.13149">
        <ele>345.3</ele>
        <time>2024-03-09T13:01:26Z</time>
      </trkpt>
      <trkpt lat="44.01842" lon="2.13156">
        <ele>345.5</ele>
        <time>2024-03-09T13:01:31Z</time>
      </trkpt>
      <trkpt lat="44.01852" lon="2.13181">
        <ele>345.9</ele>
        <time>2024-03-09T13:01:36Z</time>
      </trkpt>
      <trkpt lat="44.01844" lon="2.13208">
        <ele>345.9</ele>
        <time>2024-03-09T13:01:41Z</time>
      </trkpt>
      <trkpt lat="44.01832" lon="2.13232">
        <ele>346.1</ele>
        <time>2024-03-09T13:01:46Z</time>
      </trkpt>
      <trkpt lat="44.01821" lon="2.13258">
        <ele>346.2</ele>
        <time>2024-03-09T13:01:51Z</time>
      </trkpt>
      <trkpt lat="44.01808" lon="2.13284">
        <ele>345.9</ele>
        <time>2024-03-09T13:01:56Z</time>
      </trkpt>
      <trkpt lat="44.01796" lon="2.13309">
        <ele>345.3</ele>
        <time>2024-03-09T13:02:01Z</time>
      </trkpt>
      <trkpt lat="44.01787" lon="2.13331">
        <ele>344.8</ele>
        <time>2024-03-09T13:02:05Z</time>
      </trkpt>
      <trkpt lat="44.01776" lon="2.13356">
        <ele>344.2</ele>
        <time>2024-03-09T13:02:10Z</time>
      </trkpt>
      <trkpt lat="44.01765" lon="2.13379">
        <ele>343.5</ele>
        <time>2024-03-09T13:02:15Z</time>
      </trkpt>
      <trkpt lat="44.01754" lon="2.13402">
        <ele>341</ele>
        <time>2024-03-09T13:02:20Z</time>
      </trkpt>
      <trkpt lat="44.01748" lon="2.13409">
        <ele>340.5</ele>
        <time>2024-03-09T13:02:22Z</time>
      </trkpt>
      <trkpt lat="44.01729" lon="2.13418">
        <ele>338.9</ele>
        <time>2024-03-09T13:02:27Z</time>
      </trkpt>
      <trkpt lat="44.01709" lon="2.13421">
        <ele>339.6</ele>
        <time>2024-03-09T13:02:32Z</time>
      </trkpt>
      <trkpt lat="44.01689" lon="2.13421">
        <ele>340.7</ele>
        <time>2024-03-09T13:02:37Z</time>
      </trkpt>
      <trkpt lat="44.0167" lon="2.13421">
        <ele>341.4</ele>
        <time>2024-03-09T13:02:42Z</time>
      </trkpt>
      <trkpt lat="44.01667" lon="2.13422">
        <ele>341.6</ele>
        <time>2024-03-09T13:02:43Z</time>
      </trkpt>
      <trkpt lat="44.0166" lon="2.13427">
        <ele>341.4</ele>
        <time>2024-03-09T13:02:45Z</time>
      </trkpt>
      <trkpt lat="44.01645" lon="2.1345">
        <ele>339.1</ele>
        <time>2024-03-09T13:02:50Z</time>
      </trkpt>
      <trkpt lat="44.01632" lon="2.13469">
        <ele>338.3</ele>
        <time>2024-03-09T13:02:54Z</time>
      </trkpt>
      <trkpt lat="44.01619" lon="2.13486">
        <ele>337.8</ele>
        <time>2024-03-09T13:02:58Z</time>
      </trkpt>
      <trkpt lat="44.01616" lon="2.13489">
        <ele>337.8</ele>
        <time>2024-03-09T13:02:59Z</time>
      </trkpt>
      <trkpt lat="44.01599" lon="2.13503">
        <ele>338</ele>
        <time>2024-03-09T13:03:04Z</time>
      </trkpt>
      <trkpt lat="44.01584" lon="2.13521">
        <ele>337.5</ele>
        <time>2024-03-09T13:03:09Z</time>
      </trkpt>
      <trkpt lat="44.0158" lon="2.13523">
        <ele>337.2</ele>
        <time>2024-03-09T13:03:10Z</time>
      </trkpt>
      <trkpt lat="44.01561" lon="2.13532">
        <ele>336.8</ele>
        <time>2024-03-09T13:03:15Z</time>
      </trkpt>
      <trkpt lat="44.01553" lon="2.13531">
        <ele>337.2</ele>
        <time>2024-03-09T13:03:18Z</time>
      </trkpt>
      <trkpt lat="44.01553" lon="2.13519">
        <ele>338.1</ele>
        <time>2024-03-09T13:03:21Z</time>
      </trkpt>
      <trkpt lat="44.01564" lon="2.13494">
        <ele>339.5</ele>
        <time>2024-03-09T13:03:26Z</time>
      </trkpt>
      <trkpt lat="44.01579" lon="2.1347">
        <ele>340.3</ele>
        <time>2024-03-09T13:03:31Z</time>
      </trkpt>
      <trkpt lat="44.01582" lon="2.13467">
        <ele>340.5</ele>
        <time>2024-03-09T13:03:32Z</time>
      </trkpt>
      <trkpt lat="44.01598" lon="2.13451">
        <ele>341.1</ele>
        <time>2024-03-09T13:03:37Z</time>
      </trkpt>
      <trkpt lat="44.01614" lon="2.13433">
        <ele>341.8</ele>
        <time>2024-03-09T13:03:42Z</time>
      </trkpt>
      <trkpt lat="44.0163" lon="2.13418">
        <ele>342.6</ele>
        <time>2024-03-09T13:03:47Z</time>
      </trkpt>
      <trkpt lat="44.01645" lon="2.13404">
        <ele>343.5</ele>
        <time>2024-03-09T13:03:52Z</time>
      </trkpt>
      <trkpt lat="44.01649" lon="2.13395">
        <ele>344</ele>
        <time>2024-03-09T13:03:55Z</time>
      </trkpt>
      <trkpt lat="44.01637" lon="2.13374">
        <ele>344.4</ele>
        <time>2024-03-09T13:04:00Z</time>
      </trkpt>
      <trkpt lat="44.01634" lon="2.13369">
        <ele>344.5</ele>
        <time>2024-03-09T13:04:01Z</time>
      </trkpt>
      <trkpt lat="44.01631" lon="2.1336">
        <ele>344.5</ele>
        <time>2024-03-09T13:04:03Z</time>
      </trkpt>
      <trkpt lat="44.01626" lon="2.13333">
        <ele>344.5</ele>
        <time>2024-03-09T13:04:08Z</time>
      </trkpt>
      <trkpt lat="44.01618" lon="2.13308">
        <ele>344.5</ele>
        <time>2024-03-09T13:04:13Z</time>
      </trkpt>
      <trkpt lat="44.01617" lon="2.1329">
        <ele>344.5</ele>
        <time>2024-03-09T13:04:17Z</time>
      </trkpt>
      <trkpt lat="44.01623" lon="2.13288">
        <ele>344.5</ele>
        <time>2024-03-09T13:04:19Z</time>
      </trkpt>
      <trkpt lat="44.01639" lon="2.13308">
        <ele>344.5</ele>
        <time>2024-03-09T13:04:24Z</time>
      </trkpt>
      <trkpt lat="44.01651" lon="2.13332">
        <ele>344.5</ele>
        <time>2024-03-09T13:04:29Z</time>
      </trkpt>
      <trkpt lat="44.01662" lon="2.13355">
        <ele>344.6</ele>
        <time>2024-03-09T13:04:34Z</time>
      </trkpt>
      <trkpt lat="44.01678" lon="2.13367">
        <ele>344.7</ele>
        <time>2024-03-09T13:04:39Z</time>
      </trkpt>
      <trkpt lat="44.01695" lon="2.13373">
        <ele>344.8</ele>
        <time>2024-03-09T13:04:44Z</time>
      </trkpt>
      <trkpt lat="44.01714" lon="2.13376">
        <ele>344.9</ele>
        <time>2024-03-09T13:04:49Z</time>
      </trkpt>
      <trkpt lat="44.01732" lon="2.13373">
        <ele>345</ele>
        <time>2024-03-09T13:04:54Z</time>
      </trkpt>
      <trkpt lat="44.01739" lon="2.13366">
        <ele>345.1</ele>
        <time>2024-03-09T13:04:57Z</time>
      </trkpt>
      <trkpt lat="44.01729" lon="2.13342">
        <ele>345.3</ele>
        <time>2024-03-09T13:05:03Z</time>
      </trkpt>
      <trkpt lat="44.0173" lon="2.13336">
        <ele>345.3</ele>
        <time>2024-03-09T13:05:05Z</time>
      </trkpt>
      <trkpt lat="44.01746" lon="2.1335">
        <ele>345.5</ele>
        <time>2024-03-09T13:05:10Z</time>
      </trkpt>
      <trkpt lat="44.01761" lon="2.13369">
        <ele>345.6</ele>
        <time>2024-03-09T13:05:15Z</time>
      </trkpt>
      <trkpt lat="44.01763" lon="2.13373">
        <ele>345.6</ele>
        <time>2024-03-09T13:05:16Z</time>
      </trkpt>
      <trkpt lat="44.01764" lon="2.13382">
        <ele>345.6</ele>
        <time>2024-03-09T13:05:18Z</time>
      </trkpt>
      <trkpt lat="44.01754" lon="2.13407">
        <ele>345.5</ele>
        <time>2024-03-09T13:05:23Z</time>
      </trkpt>
      <trkpt lat="44.01736" lon="2.13417">
        <ele>345.3</ele>
        <time>2024-03-09T13:05:28Z</time>
      </trkpt>
      <trkpt lat="44.01715" lon="2.13417">
        <ele>345</ele>
        <time>2024-03-09T13:05:33Z</time>
      </trkpt>
      <trkpt lat="44.01695" lon="2.13417">
        <ele>344.8</ele>
        <time>2024-03-09T13:05:38Z</time>
      </trkpt>
      <trkpt lat="44.01675" lon="2.13419">
        <ele>344.7</ele>
        <time>2024-03-09T13:05:43Z</time>
      </trkpt>
      <trkpt lat="44.01658" lon="2.13433">
        <ele>343.2</ele>
        <time>2024-03-09T13:05:48Z</time>
      </trkpt>
      <trkpt lat="44.01644" lon="2.13451">
        <ele>342.5</ele>
        <time>2024-03-09T13:05:53Z</time>
      </trkpt>
      <trkpt lat="44.01631" lon="2.13469">
        <ele>342</ele>
        <time>2024-03-09T13:05:57Z</time>
      </trkpt>
      <trkpt lat="44.0162" lon="2.13487">
        <ele>341.4</ele>
        <time>2024-03-09T13:06:01Z</time>
      </trkpt>
      <trkpt lat="44.01603" lon="2.13501">
        <ele>340.4</ele>
        <time>2024-03-09T13:06:06Z</time>
      </trkpt>
      <trkpt lat="44.01599" lon="2.13503">
        <ele>340.1</ele>
        <time>2024-03-09T13:06:07Z</time>
      </trkpt>
      <trkpt lat="44.0158" lon="2.13517">
        <ele>338.9</ele>
        <time>2024-03-09T13:06:12Z</time>
      </trkpt>
      <trkpt lat="44.01561" lon="2.13531">
        <ele>337.7</ele>
        <time>2024-03-09T13:06:17Z</time>
      </trkpt>
      <trkpt lat="44.01545" lon="2.13548">
        <ele>336.9</ele>
        <time>2024-03-09T13:06:22Z</time>
      </trkpt>
      <trkpt lat="44.0153" lon="2.13565">
        <ele>336.2</ele>
        <time>2024-03-09T13:06:27Z</time>
      </trkpt>
      <trkpt lat="44.01512" lon="2.1358">
        <ele>335.4</ele>
        <time>2024-03-09T13:06:32Z</time>
      </trkpt>
      <trkpt lat="44.01494" lon="2.13592">
        <ele>334.9</ele>
        <time>2024-03-09T13:06:37Z</time>
      </trkpt>
      <trkpt lat="44.01475" lon="2.13594">
        <ele>334</ele>
        <time>2024-03-09T13:06:42Z</time>
      </trkpt>
      <trkpt lat="44.01456" lon="2.13587">
        <ele>336</ele>
        <time>2024-03-09T13:06:47Z</time>
      </trkpt>
      <trkpt lat="44.01441" lon="2.13571">
        <ele>337.8</ele>
        <time>2024-03-09T13:06:52Z</time>
      </trkpt>
      <trkpt lat="44.01429" lon="2.13547">
        <ele>338.2</ele>
        <time>2024-03-09T13:06:57Z</time>
      </trkpt>
      <trkpt lat="44.0142" lon="2.13529">
        <ele>338.4</ele>
        <time>2024-03-09T13:07:01Z</time>
      </trkpt>
      <trkpt lat="44.01413" lon="2.13524">
        <ele>338.5</ele>
        <time>2024-03-09T13:07:03Z</time>
      </trkpt>
      <trkpt lat="44.01406" lon="2.1352">
        <ele>338.6</ele>
        <time>2024-03-09T13:07:05Z</time>
      </trkpt>
      <trkpt lat="44.01398" lon="2.13519">
        <ele>338.6</ele>
        <time>2024-03-09T13:07:07Z</time>
      </trkpt>
      <trkpt lat="44.0139" lon="2.13521">
        <ele>338.7</ele>
        <time>2024-03-09T13:07:09Z</time>
      </trkpt>
      <trkpt lat="44.01383" lon="2.13526">
        <ele>338.7</ele>
        <time>2024-03-09T13:07:11Z</time>
      </trkpt>
      <trkpt lat="44.01372" lon="2.13539">
        <ele>338.8</ele>
        <time>2024-03-09T13:07:15Z</time>
      </trkpt>
      <trkpt lat="44.01366" lon="2.13565">
        <ele>338.8</ele>
        <time>2024-03-09T13:07:20Z</time>
      </trkpt>
      <trkpt lat="44.01365" lon="2.1359">
        <ele>338.1</ele>
        <time>2024-03-09T13:07:25Z</time>
      </trkpt>
      <trkpt lat="44.01366" lon="2.13616">
        <ele>336.8</ele>
        <time>2024-03-09T13:07:30Z</time>
      </trkpt>
      <trkpt lat="44.0138" lon="2.13637">
        <ele>335.3</ele>
        <time>2024-03-09T13:07:35Z</time>
      </trkpt>
      <trkpt lat="44.01401" lon="2.13634">
        <ele>335.1</ele>
        <time>2024-03-09T13:07:40Z</time>
      </trkpt>
      <trkpt lat="44.01423" lon="2.13632">
        <ele>334.5</ele>
        <time>2024-03-09T13:07:45Z</time>
      </trkpt>
      <trkpt lat="44.01445" lon="2.13635">
        <ele>333.3</ele>
        <time>2024-03-09T13:07:50Z</time>
      </trkpt>
      <trkpt lat="44.01465" lon="2.13638">
        <ele>332.2</ele>
        <time>2024-03-09T13:07:55Z</time>
      </trkpt>
      <trkpt lat="44.01486" lon="2.13633">
        <ele>331.2</ele>
        <time>2024-03-09T13:08:00Z</time>
      </trkpt>
      <trkpt lat="44.01505" lon="2.13621">
        <ele>330.3</ele>
        <time>2024-03-09T13:08:05Z</time>
      </trkpt>
      <trkpt lat="44.01523" lon="2.13611">
        <ele>330</ele>
        <time>2024-03-09T13:08:10Z</time>
      </trkpt>
      <trkpt lat="44.01542" lon="2.13604">
        <ele>329.7</ele>
        <time>2024-03-09T13:08:15Z</time>
      </trkpt>
      <trkpt lat="44.01561" lon="2.13595">
        <ele>329.4</ele>
        <time>2024-03-09T13:08:20Z</time>
      </trkpt>
      <trkpt lat="44.01579" lon="2.13584">
        <ele>329.2</ele>
        <time>2024-03-09T13:08:25Z</time>
      </trkpt>
      <trkpt lat="44.0159" lon="2.13577">
        <ele>329.1</ele>
        <time>2024-03-09T13:08:28Z</time>
      </trkpt>
      <trkpt lat="44.01609" lon="2.13566">
        <ele>329</ele>
        <time>2024-03-09T13:08:33Z</time>
      </trkpt>
      <trkpt lat="44.01627" lon="2.13552">
        <ele>329</ele>
        <time>2024-03-09T13:08:38Z</time>
      </trkpt>
      <trkpt lat="44.01645" lon="2.13537">
        <ele>329.1</ele>
        <time>2024-03-09T13:08:43Z</time>
      </trkpt>
      <trkpt lat="44.01651" lon="2.1353">
        <ele>329.1</ele>
        <time>2024-03-09T13:08:45Z</time>
      </trkpt>
      <trkpt lat="44.01667" lon="2.13517">
        <ele>329</ele>
        <time>2024-03-09T13:08:50Z</time>
      </trkpt>
      <trkpt lat="44.01673" lon="2.13511">
        <ele>329</ele>
        <time>2024-03-09T13:08:52Z</time>
      </trkpt>
      <trkpt lat="44.0169" lon="2.13494">
        <ele>329.1</ele>
        <time>2024-03-09T13:08:57Z</time>
      </trkpt>
      <trkpt lat="44.01698" lon="2.13484">
        <ele>329.2</ele>
        <time>2024-03-09T13:09:00Z</time>
      </trkpt>
      <trkpt lat="44.01704" lon="2.13481">
        <ele>329.2</ele>
        <time>2024-03-09T13:09:02Z</time>
      </trkpt>
      <trkpt lat="44.01723" lon="2.13474">
        <ele>331.3</ele>
        <time>2024-03-09T13:09:09Z</time>
      </trkpt>
      <trkpt lat="44.01741" lon="2.13466">
        <ele>334.2</ele>
        <time>2024-03-09T13:09:16Z</time>
      </trkpt>
      <trkpt lat="44.0176" lon="2.1346">
        <ele>337.4</ele>
        <time>2024-03-09T13:09:23Z</time>
      </trkpt>
      <trkpt lat="44.01779" lon="2.13451">
        <ele>340.9</ele>
        <time>2024-03-09T13:09:30Z</time>
      </trkpt>
      <trkpt lat="44.01797" lon="2.13442">
        <ele>344.7</ele>
        <time>2024-03-09T13:09:36Z</time>
      </trkpt>
      <trkpt lat="44.01816" lon="2.1343">
        <ele>344.3</ele>
        <time>2024-03-09T13:09:42Z</time>
      </trkpt>
      <trkpt lat="44.01836" lon="2.13421">
        <ele>344</ele>
        <time>2024-03-09T13:09:48Z</time>
      </trkpt>
      <trkpt lat="44.01854" lon="2.13415">
        <ele>343.8</ele>
        <time>2024-03-09T13:09:53Z</time>
      </trkpt>
      <trkpt lat="44.01874" lon="2.13409">
        <ele>343.6</ele>
        <time>2024-03-09T13:09:58Z</time>
      </trkpt>
      <trkpt lat="44.01893" lon="2.13402">
        <ele>343.4</ele>
        <time>2024-03-09T13:10:03Z</time>
      </trkpt>
      <trkpt lat="44.01911" lon="2.13396">
        <ele>343.3</ele>
        <time>2024-03-09T13:10:08Z</time>
      </trkpt>
      <trkpt lat="44.01928" lon="2.13389">
        <ele>343.1</ele>
        <time>2024-03-09T13:10:13Z</time>
      </trkpt>
      <trkpt lat="44.01948" lon="2.13382">
        <ele>343</ele>
        <time>2024-03-09T13:10:18Z</time>
      </trkpt>
      <trkpt lat="44.01966" lon="2.13374">
        <ele>343</ele>
        <time>2024-03-09T13:10:23Z</time>
      </trkpt>
      <trkpt lat="44.01985" lon="2.13368">
        <ele>343</ele>
        <time>2024-03-09T13:10:28Z</time>
      </trkpt>
      <trkpt lat="44.01991" lon="2.13361">
        <ele>343.1</ele>
        <time>2024-03-09T13:10:29Z</time>
      </trkpt>
      <trkpt lat="44.01991" lon="2.13357">
        <ele>343.1</ele>
        <time>2024-03-09T13:10:31Z</time>
      </trkpt>
      <trkpt lat="44.01982" lon="2.13343">
        <ele>344.5</ele>
        <time>2024-03-09T13:10:35Z</time>
      </trkpt>
      <trkpt lat="44.01963" lon="2.13338">
        <ele>345</ele>
        <time>2024-03-09T13:10:40Z</time>
      </trkpt>
      <trkpt lat="44.01944" lon="2.13333">
        <ele>345.6</ele>
        <time>2024-03-09T13:10:45Z</time>
      </trkpt>
      <trkpt lat="44.01924" lon="2.13327">
        <ele>346.3</ele>
        <time>2024-03-09T13:10:50Z</time>
      </trkpt>
      <trkpt lat="44.01905" lon="2.13324">
        <ele>346.5</ele>
        <time>2024-03-09T13:10:55Z</time>
      </trkpt>
      <trkpt lat="44.01904" lon="2.13321">
        <ele>346.8</ele>
        <time>2024-03-09T13:10:56Z</time>
      </trkpt>
      <trkpt lat="44.01904" lon="2.13313">
        <ele>347.1</ele>
        <time>2024-03-09T13:10:58Z</time>
      </trkpt>
      <trkpt lat="44.01913" lon="2.13289">
        <ele>347.5</ele>
        <time>2024-03-09T13:11:03Z</time>
      </trkpt>
      <trkpt lat="44.01923" lon="2.13266">
        <ele>347.9</ele>
        <time>2024-03-09T13:11:08Z</time>
      </trkpt>
      <trkpt lat="44.01929" lon="2.13241">
        <ele>348.4</ele>
        <time>2024-03-09T13:11:13Z</time>
      </trkpt>
      <trkpt lat="44.01924" lon="2.13238">
        <ele>348.5</ele>
        <time>2024-03-09T13:11:15Z</time>
      </trkpt>
      <trkpt lat="44.01908" lon="2.13252">
        <ele>348.7</ele>
        <time>2024-03-09T13:11:20Z</time>
      </trkpt>
      <trkpt lat="44.01891" lon="2.13268">
        <ele>348.6</ele>
        <time>2024-03-09T13:11:25Z</time>
      </trkpt>
      <trkpt lat="44.01875" lon="2.13284">
        <ele>348.6</ele>
        <time>2024-03-09T13:11:30Z</time>
      </trkpt>
      <trkpt lat="44.01858" lon="2.13301">
        <ele>348.7</ele>
        <time>2024-03-09T13:11:35Z</time>
      </trkpt>
      <trkpt lat="44.01841" lon="2.1332">
        <ele>348.3</ele>
        <time>2024-03-09T13:11:40Z</time>
      </trkpt>
      <trkpt lat="44.01825" lon="2.13338">
        <ele>347.9</ele>
        <time>2024-03-09T13:11:45Z</time>
      </trkpt>
      <trkpt lat="44.01807" lon="2.13353">
        <ele>347.9</ele>
        <time>2024-03-09T13:11:50Z</time>
      </trkpt>
      <trkpt lat="44.01793" lon="2.13369">
        <ele>347.8</ele>
        <time>2024-03-09T13:11:55Z</time>
      </trkpt>
      <trkpt lat="44.01778" lon="2.13385">
        <ele>347.2</ele>
        <time>2024-03-09T13:12:00Z</time>
      </trkpt>
      <trkpt lat="44.01763" lon="2.13403">
        <ele>345.6</ele>
        <time>2024-03-09T13:12:05Z</time>
      </trkpt>
      <trkpt lat="44.01745" lon="2.13416">
        <ele>345.4</ele>
        <time>2024-03-09T13:12:10Z</time>
      </trkpt>
      <trkpt lat="44.01727" lon="2.13422">
        <ele>345.1</ele>
        <time>2024-03-09T13:12:15Z</time>
      </trkpt>
      <trkpt lat="44.01707" lon="2.13422">
        <ele>345</ele>
        <time>2024-03-09T13:12:20Z</time>
      </trkpt>
      <trkpt lat="44.01688" lon="2.13424">
        <ele>344.6</ele>
        <time>2024-03-09T13:12:25Z</time>
      </trkpt>
      <trkpt lat="44.01669" lon="2.13425">
        <ele>343.9</ele>
        <time>2024-03-09T13:12:30Z</time>
      </trkpt>
      <trkpt lat="44.01654" lon="2.13442">
        <ele>343.1</ele>
        <time>2024-03-09T13:12:35Z</time>
      </trkpt>
      <trkpt lat="44.01644" lon="2.13455">
        <ele>342.6</ele>
        <time>2024-03-09T13:12:38Z</time>
      </trkpt>
      <trkpt lat="44.0163" lon="2.13473">
        <ele>342</ele>
        <time>2024-03-09T13:12:42Z</time>
      </trkpt>
      <trkpt lat="44.01616" lon="2.13492">
        <ele>341.4</ele>
        <time>2024-03-09T13:12:47Z</time>
      </trkpt>
      <trkpt lat="44.01602" lon="2.13508">
        <ele>340.5</ele>
        <time>2024-03-09T13:12:52Z</time>
      </trkpt>
      <trkpt lat="44.01587" lon="2.13524">
        <ele>339.2</ele>
        <time>2024-03-09T13:12:57Z</time>
      </trkpt>
      <trkpt lat="44.01568" lon="2.13539">
        <ele>338</ele>
        <time>2024-03-09T13:13:02Z</time>
      </trkpt>
      <trkpt lat="44.01551" lon="2.13552">
        <ele>337.1</ele>
        <time>2024-03-09T13:13:07Z</time>
      </trkpt>
      <trkpt lat="44.01533" lon="2.13568">
        <ele>336.3</ele>
        <time>2024-03-09T13:13:12Z</time>
      </trkpt>
      <trkpt lat="44.01517" lon="2.13581">
        <ele>335.6</ele>
        <time>2024-03-09T13:13:17Z</time>
      </trkpt>
      <trkpt lat="44.01501" lon="2.13594">
        <ele>335</ele>
        <time>2024-03-09T13:13:22Z</time>
      </trkpt>
      <trkpt lat="44.01482" lon="2.13597">
        <ele>334.3</ele>
        <time>2024-03-09T13:13:27Z</time>
      </trkpt>
      <trkpt lat="44.01461" lon="2.13589">
        <ele>337.2</ele>
        <time>2024-03-09T13:13:33Z</time>
      </trkpt>
      <trkpt lat="44.01454" lon="2.13583">
        <ele>338</ele>
        <time>2024-03-09T13:13:35Z</time>
      </trkpt>
      <trkpt lat="44.01443" lon="2.13571">
        <ele>339.3</ele>
        <time>2024-03-09T13:13:38Z</time>
      </trkpt>
      <trkpt lat="44.01436" lon="2.13557">
        <ele>339.6</ele>
        <time>2024-03-09T13:13:41Z</time>
      </trkpt>
      <trkpt lat="44.01426" lon="2.13534">
        <ele>339.8</ele>
        <time>2024-03-09T13:13:46Z</time>
      </trkpt>
      <trkpt lat="44.01408" lon="2.13519">
        <ele>340</ele>
        <time>2024-03-09T13:13:52Z</time>
      </trkpt>
      <trkpt lat="44.0139" lon="2.13518">
        <ele>339.9</ele>
        <time>2024-03-09T13:13:57Z</time>
      </trkpt>
      <trkpt lat="44.01374" lon="2.13535">
        <ele>340</ele>
        <time>2024-03-09T13:14:02Z</time>
      </trkpt>
      <trkpt lat="44.01371" lon="2.13544">
        <ele>340.1</ele>
        <time>2024-03-09T13:14:03Z</time>
      </trkpt>
      <trkpt lat="44.01368" lon="2.13569">
        <ele>340</ele>
        <time>2024-03-09T13:14:09Z</time>
      </trkpt>
      <trkpt lat="44.01366" lon="2.13595">
        <ele>339.2</ele>
        <time>2024-03-09T13:14:14Z</time>
      </trkpt>
      <trkpt lat="44.01368" lon="2.13621">
        <ele>337.7</ele>
        <time>2024-03-09T13:14:19Z</time>
      </trkpt>
      <trkpt lat="44.01374" lon="2.1363">
        <ele>337</ele>
        <time>2024-03-09T13:14:20Z</time>
      </trkpt>
      <trkpt lat="44.01394" lon="2.13634">
        <ele>336.5</ele>
        <time>2024-03-09T13:14:26Z</time>
      </trkpt>
      <trkpt lat="44.01414" lon="2.1363">
        <ele>336.4</ele>
        <time>2024-03-09T13:14:31Z</time>
      </trkpt>
      <trkpt lat="44.01419" lon="2.13633">
        <ele>335.7</ele>
        <time>2024-03-09T13:14:35Z</time>
      </trkpt>
      <trkpt lat="44.01402" lon="2.13641">
        <ele>336.3</ele>
        <time>2024-03-09T13:14:40Z</time>
      </trkpt>
      <trkpt lat="44.01382" lon="2.13642">
        <ele>336.3</ele>
        <time>2024-03-09T13:14:45Z</time>
      </trkpt>
      <trkpt lat="44.01365" lon="2.13629">
        <ele>337.8</ele>
        <time>2024-03-09T13:14:51Z</time>
      </trkpt>
      <trkpt lat="44.01354" lon="2.13606">
        <ele>339.9</ele>
        <time>2024-03-09T13:14:59Z</time>
      </trkpt>
      <trkpt lat="44.0134" lon="2.13592">
        <ele>340.7</ele>
        <time>2024-03-09T13:15:04Z</time>
      </trkpt>
      <trkpt lat="44.01327" lon="2.13608">
        <ele>340.2</ele>
        <time>2024-03-09T13:15:09Z</time>
      </trkpt>
      <trkpt lat="44.01324" lon="2.13633">
        <ele>339</ele>
        <time>2024-03-09T13:15:14Z</time>
      </trkpt>
      <trkpt lat="44.0134" lon="2.13649">
        <ele>338</ele>
        <time>2024-03-09T13:15:19Z</time>
      </trkpt>
      <trkpt lat="44.0136" lon="2.13653">
        <ele>336.9</ele>
        <time>2024-03-09T13:15:23Z</time>
      </trkpt>
      <trkpt lat="44.01381" lon="2.13656">
        <ele>335.9</ele>
        <time>2024-03-09T13:15:28Z</time>
      </trkpt>
      <trkpt lat="44.014" lon="2.13655">
        <ele>335.5</ele>
        <time>2024-03-09T13:15:33Z</time>
      </trkpt>
      <trkpt lat="44.01422" lon="2.13652">
        <ele>334.7</ele>
        <time>2024-03-09T13:15:38Z</time>
      </trkpt>
      <trkpt lat="44.01443" lon="2.13648">
        <ele>333.4</ele>
        <time>2024-03-09T13:15:43Z</time>
      </trkpt>
      <trkpt lat="44.01463" lon="2.13656">
        <ele>332.3</ele>
        <time>2024-03-09T13:15:48Z</time>
      </trkpt>
      <trkpt lat="44.01475" lon="2.13663">
        <ele>331.9</ele>
        <time>2024-03-09T13:15:51Z</time>
      </trkpt>
      <trkpt lat="44.01494" lon="2.13663">
        <ele>330.7</ele>
        <time>2024-03-09T13:15:56Z</time>
      </trkpt>
      <trkpt lat="44.01514" lon="2.13662">
        <ele>329.1</ele>
        <time>2024-03-09T13:16:01Z</time>
      </trkpt>
      <trkpt lat="44.01535" lon="2.13664">
        <ele>327.3</ele>
        <time>2024-03-09T13:16:06Z</time>
      </trkpt>
      <trkpt lat="44.01552" lon="2.13665">
        <ele>325.8</ele>
        <time>2024-03-09T13:16:10Z</time>
      </trkpt>
      <trkpt lat="44.01561" lon="2.13663">
        <ele>325.1</ele>
        <time>2024-03-09T13:16:12Z</time>
      </trkpt>
      <trkpt lat="44.01569" lon="2.13658">
        <ele>324.3</ele>
        <time>2024-03-09T13:16:14Z</time>
      </trkpt>
      <trkpt lat="44.01575" lon="2.13649">
        <ele>323.7</ele>
        <time>2024-03-09T13:16:16Z</time>
      </trkpt>
      <trkpt lat="44.01576" lon="2.13638">
        <ele>323</ele>
        <time>2024-03-09T13:16:18Z</time>
      </trkpt>
      <trkpt lat="44.01566" lon="2.13621">
        <ele>323.6</ele>
        <time>2024-03-09T13:16:23Z</time>
      </trkpt>
      <trkpt lat="44.01546" lon="2.13626">
        <ele>325.7</ele>
        <time>2024-03-09T13:16:29Z</time>
      </trkpt>
      <trkpt lat="44.01528" lon="2.1363">
        <ele>327.5</ele>
        <time>2024-03-09T13:16:36Z</time>
      </trkpt>
      <trkpt lat="44.0151" lon="2.1363">
        <ele>329.3</ele>
        <time>2024-03-09T13:16:41Z</time>
      </trkpt>
      <trkpt lat="44.01499" lon="2.13625">
        <ele>330.5</ele>
        <time>2024-03-09T13:16:45Z</time>
      </trkpt>
      <trkpt lat="44.01516" lon="2.13613">
        <ele>330.1</ele>
        <time>2024-03-09T13:16:52Z</time>
      </trkpt>
      <trkpt lat="44.01535" lon="2.13606">
        <ele>329.8</ele>
        <time>2024-03-09T13:16:58Z</time>
      </trkpt>
      <trkpt lat="44.01553" lon="2.13598">
        <ele>329.5</ele>
        <time>2024-03-09T13:17:03Z</time>
      </trkpt>
      <trkpt lat="44.01571" lon="2.13589">
        <ele>329.3</ele>
        <time>2024-03-09T13:17:08Z</time>
      </trkpt>
      <trkpt lat="44.01589" lon="2.13579">
        <ele>329.1</ele>
        <time>2024-03-09T13:17:13Z</time>
      </trkpt>
      <trkpt lat="44.01609" lon="2.13568">
        <ele>329</ele>
        <time>2024-03-09T13:17:18Z</time>
      </trkpt>
      <trkpt lat="44.01625" lon="2.13554">
        <ele>329</ele>
        <time>2024-03-09T13:17:23Z</time>
      </trkpt>
      <trkpt lat="44.0164" lon="2.13537">
        <ele>329</ele>
        <time>2024-03-09T13:17:28Z</time>
      </trkpt>
      <trkpt lat="44.01656" lon="2.13522">
        <ele>329</ele>
        <time>2024-03-09T13:17:33Z</time>
      </trkpt>
      <trkpt lat="44.01674" lon="2.13508">
        <ele>329.1</ele>
        <time>2024-03-09T13:17:38Z</time>
      </trkpt>
      <trkpt lat="44.01689" lon="2.13491">
        <ele>329.1</ele>
        <time>2024-03-09T13:17:43Z</time>
      </trkpt>
      <trkpt lat="44.01706" lon="2.13477">
        <ele>332.3</ele>
        <time>2024-03-09T13:17:49Z</time>
      </trkpt>
      <trkpt lat="44.01727" lon="2.13473">
        <ele>333.5</ele>
        <time>2024-03-09T13:17:56Z</time>
      </trkpt>
      <trkpt lat="44.01745" lon="2.13466">
        <ele>335.4</ele>
        <time>2024-03-09T13:18:03Z</time>
      </trkpt>
      <trkpt lat="44.01763" lon="2.1346">
        <ele>338.1</ele>
        <time>2024-03-09T13:18:09Z</time>
      </trkpt>
      <trkpt lat="44.0178" lon="2.1345">
        <ele>340.8</ele>
        <time>2024-03-09T13:18:15Z</time>
      </trkpt>
      <trkpt lat="44.01797" lon="2.13439">
        <ele>344.7</ele>
        <time>2024-03-09T13:18:21Z</time>
      </trkpt>
      <trkpt lat="44.01815" lon="2.1343">
        <ele>344.3</ele>
        <time>2024-03-09T13:18:27Z</time>
      </trkpt>
      <trkpt lat="44.01834" lon="2.13423">
        <ele>344</ele>
        <time>2024-03-09T13:18:33Z</time>
      </trkpt>
      <trkpt lat="44.01853" lon="2.13418">
        <ele>343.8</ele>
        <time>2024-03-09T13:18:38Z</time>
      </trkpt>
      <trkpt lat="44.01874" lon="2.13411">
        <ele>343.6</ele>
        <time>2024-03-09T13:18:44Z</time>
      </trkpt>
      <trkpt lat="44.01891" lon="2.13406">
        <ele>343.4</ele>
        <time>2024-03-09T13:18:49Z</time>
      </trkpt>
      <trkpt lat="44.01912" lon="2.13396">
        <ele>343.2</ele>
        <time>2024-03-09T13:18:55Z</time>
      </trkpt>
      <trkpt lat="44.0193" lon="2.1339">
        <ele>343.1</ele>
        <time>2024-03-09T13:19:00Z</time>
      </trkpt>
      <trkpt lat="44.01949" lon="2.13382">
        <ele>343</ele>
        <time>2024-03-09T13:19:05Z</time>
      </trkpt>
      <trkpt lat="44.01969" lon="2.13374">
        <ele>343</ele>
        <time>2024-03-09T13:19:10Z</time>
      </trkpt>
      <trkpt lat="44.01988" lon="2.13367">
        <ele>343.1</ele>
        <time>2024-03-09T13:19:15Z</time>
      </trkpt>
      <trkpt lat="44.01992" lon="2.13354">
        <ele>345.1</ele>
        <time>2024-03-09T13:19:18Z</time>
      </trkpt>
      <trkpt lat="44.01987" lon="2.13346">
        <ele>345.6</ele>
        <time>2024-03-09T13:19:20Z</time>
      </trkpt>
      <trkpt lat="44.01968" lon="2.1334">
        <ele>346.4</ele>
        <time>2024-03-09T13:19:25Z</time>
      </trkpt>
      <trkpt lat="44.01948" lon="2.13335">
        <ele>346.9</ele>
        <time>2024-03-09T13:19:31Z</time>
      </trkpt>
      <trkpt lat="44.0193" lon="2.1333">
        <ele>347.4</ele>
        <time>2024-03-09T13:19:36Z</time>
      </trkpt>
      <trkpt lat="44.01911" lon="2.13325">
        <ele>347.7</ele>
        <time>2024-03-09T13:19:41Z</time>
      </trkpt>
      <trkpt lat="44.01905" lon="2.13322">
        <ele>347.9</ele>
        <time>2024-03-09T13:19:43Z</time>
      </trkpt>
      <trkpt lat="44.01905" lon="2.13314">
        <ele>348.2</ele>
        <time>2024-03-09T13:19:45Z</time>
      </trkpt>
      <trkpt lat="44.01915" lon="2.13288">
        <ele>348.6</ele>
        <time>2024-03-09T13:19:51Z</time>
      </trkpt>
      <trkpt lat="44.01924" lon="2.13266">
        <ele>348.8</ele>
        <time>2024-03-09T13:19:56Z</time>
      </trkpt>
      <trkpt lat="44.01928" lon="2.13242">
        <ele>349.3</ele>
        <time>2024-03-09T13:20:01Z</time>
      </trkpt>
      <trkpt lat="44.01927" lon="2.13239">
        <ele>349.4</ele>
        <time>2024-03-09T13:20:02Z</time>
      </trkpt>
      <trkpt lat="44.01909" lon="2.13253">
        <ele>349.4</ele>
        <time>2024-03-09T13:20:08Z</time>
      </trkpt>
      <trkpt lat="44.01894" lon="2.13269">
        <ele>349.3</ele>
        <time>2024-03-09T13:20:13Z</time>
      </trkpt>
      <trkpt lat="44.01878" lon="2.13283">
        <ele>349.3</ele>
        <time>2024-03-09T13:20:18Z</time>
      </trkpt>
      <trkpt lat="44.01861" lon="2.13298">
        <ele>349.4</ele>
        <time>2024-03-09T13:20:23Z</time>
      </trkpt>
      <trkpt lat="44.01845" lon="2.13315">
        <ele>349</ele>
        <time>2024-03-09T13:20:28Z</time>
      </trkpt>
      <trkpt lat="44.0183" lon="2.13331">
        <ele>348.7</ele>
        <time>2024-03-09T13:20:33Z</time>
      </trkpt>
      <trkpt lat="44.01815" lon="2.13348">
        <ele>348.4</ele>
        <time>2024-03-09T13:20:38Z</time>
      </trkpt>
      <trkpt lat="44.018" lon="2.13364">
        <ele>348.2</ele>
        <time>2024-03-09T13:20:43Z</time>
      </trkpt>
      <trkpt lat="44.01783" lon="2.13379">
        <ele>348</ele>
        <time>2024-03-09T13:20:48Z</time>
      </trkpt>
      <trkpt lat="44.01766" lon="2.13372">
        <ele>348.7</ele>
        <time>2024-03-09T13:20:53Z</time>
      </trkpt>
      <trkpt lat="44.0175" lon="2.13353">
        <ele>350.1</ele>
        <time>2024-03-09T13:20:58Z</time>
      </trkpt>
      <trkpt lat="44.01734" lon="2.13333">
        <ele>350.7</ele>
        <time>2024-03-09T13:21:03Z</time>
      </trkpt>
      <trkpt lat="44.01716" lon="2.13314">
        <ele>350.9</ele>
        <time>2024-03-09T13:21:08Z</time>
      </trkpt>
      <trkpt lat="44.01699" lon="2.13294">
        <ele>350.7</ele>
        <time>2024-03-09T13:21:13Z</time>
      </trkpt>
      <trkpt lat="44.0169" lon="2.13286">
        <ele>350.4</ele>
        <time>2024-03-09T13:21:17Z</time>
      </trkpt>
    </trkseg>
  </trk>
</gpx>